Time;durP1;ratioP1;P1;durP2;ratioP2;P2;SDS_P1;SDS_P2;PMS_P1;PMS_P2;Temp;Humidity;BMP_temperature;BMP_pressure;BME280_temperature;BME280_humidity;BME280_pressure;Samples;Min_cycle;Max_cycle;Signal;HPM_P1;HPM_P2
2022/12/17 13:06:10;;;;;;;;;;;5.10;87.20;;;;;;5029141;28;20430;-76
2022/12/17 13:08:36;;;;;;;;;;;5.30;87.20;;;;;;5014285;28;19921;-76
2022/12/17 13:11:08;;;;;;;;;;;5.40;87.10;;;;;;5036178;28;19925;-77
2022/12/17 13:13:38;;;;;;;;;;;5.50;87.10;;;;;;5031254;28;19932;-76
2022/12/17 13:16:24;;;;;;;;;;;5.60;87.00;;;;;;5019160;28;19917;-77
2022/12/17 13:18:51;;;;;;;;;;;5.70;86.80;;;;;;5027380;28;19920;-77
2022/12/17 13:21:17;;;;;;;;;;;5.80;86.80;;;;;;5030218;28;19928;-76
2022/12/17 13:23:42;;;;;;;;;;;5.80;86.40;;;;;;5034475;28;19981;-77
2022/12/17 13:26:43;;;;;;;;;;;5.80;86.50;;;;;;5033065;28;19933;-76
2022/12/17 13:29:10;;;;;;;;;;;5.90;86.60;;;;;;4992709;28;20016;-75
2022/12/17 13:31:42;;;;;;;;;;;6.00;86.60;;;;;;4989123;28;20747;-77
2022/12/17 13:34:12;;;;;;;;;;;6.00;86.30;;;;;;4989774;28;20044;-77
2022/12/17 13:36:37;;;;;;;;;;;5.90;86.00;;;;;;4990834;28;20024;-76
2022/12/17 13:39:05;;;;;;;;;;;5.90;86.20;;;;;;4997260;28;19925;-77
2022/12/17 13:41:31;;;;;;;;;;;5.90;86.30;;;;;;4994411;28;20003;-75
2022/12/17 13:43:57;;;;;;;;;;;6.00;86.40;;;;;;4979971;28;20555;-76
2022/12/17 13:46:35;;;;;;;;;;;6.10;86.40;;;;;;4963113;28;19969;-76
2022/12/17 13:49:04;;;;;;;;;;;6.10;86.30;;;;;;4962897;28;20407;-77
2022/12/17 13:51:30;;;;;;;;;;;6.00;86.10;;;;;;4994502;28;19925;-75
2022/12/17 13:53:59;;;;;;;;;;;6.00;86.00;;;;;;4993258;28;19965;-76
2022/12/17 13:56:25;;;;;;;;;;;5.90;85.70;;;;;;4974737;28;19990;-76
2022/12/17 13:58:51;;;;;;;;;;;5.80;86.30;;;;;;4993258;28;20017;-77
2022/12/17 14:01:17;;;;;;;;;;;5.70;85.50;;;;;;4974883;28;19925;-75
2022/12/17 14:03:43;;;;;;;;;;;5.60;85.40;;;;;;5015730;28;20040;-77
2022/12/17 14:06:08;;;;;;;;;;;5.50;85.40;;;;;;5045983;28;19963;-77
2022/12/17 14:08:34;;;;;;;;;;;5.40;85.40;;;;;;5032331;28;20044;-76
2022/12/17 14:13:44;;;;;;;;;;;5.10;85.40;;;;;;5034995;28;19931;-76
2022/12/17 14:16:13;;;;;;;;;;;5.00;85.50;;;;;;5030084;28;20627;-76
2022/12/17 14:18:39;;;;;;;;;;;4.90;85.30;;;;;;5033263;28;19920;-77
2022/12/17 14:21:04;;;;;;;;;;;4.80;85.50;;;;;;5027203;28;19958;-76
2022/12/17 14:23:30;;;;;;;;;;;4.70;85.40;;;;;;5038850;28;19921;-76
2022/12/17 14:25:55;;;;;;;;;;;4.60;85.40;;;;;;5044206;28;20365;-76
2022/12/17 14:28:28;;;;;;;;;;;4.50;85.50;;;;;;5014344;28;19920;-76
2022/12/17 14:31:03;;;;;;;;;;;4.50;85.80;;;;;;5031130;28;19960;-77
2022/12/17 14:33:30;;;;;;;;;;;4.40;86.00;;;;;;5031862;28;20361;-76
2022/12/17 14:35:55;;;;;;;;;;;4.50;87.00;;;;;;5031108;28;20019;-76
2022/12/17 14:38:21;;;;;;;;;;;4.70;87.40;;;;;;5026177;28;20426;-77
2022/12/17 14:40:46;;;;;;;;;;;4.90;87.80;;;;;;5031568;28;19927;-76
2022/12/17 14:43:12;;;;;;;;;;;5.20;88.10;;;;;;5032683;28;20550;-76
2022/12/17 14:46:19;;;;;;;;;;;5.40;88.10;;;;;;5043620;28;20734;-76
2022/12/17 14:48:59;;;;;;;;;;;5.60;87.80;;;;;;5044227;28;20136;-77
2022/12/17 14:51:19;;;;;;;;;;;5.70;87.40;;;;;;5048340;28;19931;-76
2022/12/17 14:53:45;;;;;;;;;;;5.70;86.60;;;;;;5036349;28;19975;-75
2022/12/17 14:56:19;;;;;;;;;;;5.50;85.70;;;;;;5021083;28;20524;-77
2022/12/17 14:58:45;;;;;;;;;;;5.30;85.00;;;;;;5036807;28;19920;-77
2022/12/17 15:01:11;;;;;;;;;;;5.10;84.60;;;;;;5020149;28;19952;-76
2022/12/17 15:03:37;;;;;;;;;;;4.80;84.20;;;;;;5018449;28;20043;-77
2022/12/17 15:06:04;;;;;;;;;;;4.60;83.70;;;;;;5016402;28;19940;-76
2022/12/17 15:08:30;;;;;;;;;;;4.20;83.50;;;;;;5035371;28;19937;-76
2022/12/17 15:10:57;;;;;;;;;;;3.90;83.30;;;;;;5016176;28;19921;-75
2022/12/17 15:13:22;;;;;;;;;;;3.60;83.50;;;;;;5015672;28;19986;-76
2022/12/17 15:15:48;;;;;;;;;;;3.40;83.70;;;;;;5034210;28;20387;-76
2022/12/17 15:18:13;;;;;;;;;;;3.20;83.90;;;;;;5018079;28;19997;-76
2022/12/17 15:20:39;;;;;;;;;;;3.00;83.90;;;;;;5018571;28;19940;-76
2022/12/17 15:23:04;;;;;;;;;;;2.80;84.20;;;;;;5031291;28;19947;-76
2022/12/17 15:25:30;;;;;;;;;;;2.60;84.40;;;;;;5014476;28;19991;-77
2022/12/17 15:27:55;;;;;;;;;;;2.50;84.50;;;;;;5018169;28;20020;-76
2022/12/17 15:30:21;;;;;;;;;;;2.30;84.50;;;;;;5020287;28;19932;-76
2022/12/17 15:32:46;;;;;;;;;;;2.10;84.30;;;;;;5013450;28;19921;-76
2022/12/17 15:35:12;;;;;;;;;;;1.90;84.40;;;;;;5020567;28;19940;-75
2022/12/17 15:37:37;;;;;;;;;;;1.70;84.70;;;;;;5017682;28;19917;-76
2022/12/17 15:40:06;;;;;;;;;;;1.60;84.80;;;;;;5000937;28;20290;-74
2022/12/17 15:45:16;;;;;;;;;;;1.30;84.80;;;;;;5013863;28;20369;-76
2022/12/17 15:47:42;;;;;;;;;;;1.10;84.90;;;;;;5013275;28;19921;-75
2022/12/17 15:50:07;;;;;;;;;;;0.90;84.80;;;;;;5017614;28;19933;-75
2022/12/17 15:52:33;;;;;;;;;;;0.80;85.20;;;;;;5030528;28;20478;-75
2022/12/17 15:54:58;;;;;;;;;;;0.70;85.40;;;;;;5034392;28;19928;-75
2022/12/17 15:57:24;;;;;;;;;;;0.60;85.60;;;;;;5010418;28;20407;-70
2022/12/17 15:59:49;;;;;;;;;;;0.50;85.70;;;;;;5031448;28;19995;-75
2022/12/17 16:02:15;;;;;;;;;;;0.40;85.80;;;;;;5030227;28;19921;-75
2022/12/17 16:04:41;;;;;;;;;;;0.30;85.90;;;;;;5016439;28;19932;-76
2022/12/17 16:07:06;;;;;;;;;;;0.20;86.00;;;;;;5026604;28;19921;-75
2022/12/17 16:09:31;;;;;;;;;;;0.10;86.10;;;;;;5022881;28;19932;-76
2022/12/17 16:11:57;;;;;;;;;;;0.10;86.20;;;;;;5051791;28;20556;-75
2022/12/17 16:14:22;;;;;;;;;;;-0.10;86.20;;;;;;5050050;28;19944;-75
2022/12/17 16:16:48;;;;;;;;;;;-0.20;86.30;;;;;;5016971;28;19924;-75
2022/12/17 16:19:14;;;;;;;;;;;-0.20;86.30;;;;;;5036666;28;19932;-75
2022/12/17 16:21:39;;;;;;;;;;;-0.30;86.50;;;;;;5036197;28;19960;-76
2022/12/17 16:24:05;;;;;;;;;;;-0.40;86.60;;;;;;5019365;28;20675;-75
2022/12/17 16:26:30;;;;;;;;;;;-0.40;86.60;;;;;;5032021;28;19933;-76
2022/12/17 16:28:56;;;;;;;;;;;-0.60;86.60;;;;;;5034317;28;20032;-75
2022/12/17 16:31:22;;;;;;;;;;;-0.60;86.80;;;;;;5036251;28;19971;-75
2022/12/17 16:33:47;;;;;;;;;;;-0.70;86.90;;;;;;5051521;28;19920;-75
2022/12/17 16:36:14;;;;;;;;;;;-0.70;86.80;;;;;;5032227;28;19925;-76
2022/12/17 16:38:43;;;;;;;;;;;-0.90;86.60;;;;;;5035272;28;19958;-75
2022/12/17 16:41:08;;;;;;;;;;;-1.00;86.80;;;;;;5036550;28;20410;-74
2022/12/17 16:43:34;;;;;;;;;;;-1.00;87.00;;;;;;5034200;28;19928;-75
2022/12/17 16:45:59;;;;;;;;;;;-1.10;87.00;;;;;;5032855;28;20141;-75
2022/12/17 16:48:25;;;;;;;;;;;-1.20;87.10;;;;;;5033809;28;20171;-74
2022/12/17 16:50:50;;;;;;;;;;;-1.30;87.20;;;;;;5036489;28;20442;-75
2022/12/17 16:53:16;;;;;;;;;;;-1.30;87.30;;;;;;5018110;28;19927;-76
2022/12/17 16:55:43;;;;;;;;;;;-1.40;87.30;;;;;;5036609;28;19939;-76
2022/12/17 16:58:09;;;;;;;;;;;-1.40;87.40;;;;;;5034998;28;19935;-73
2022/12/17 17:00:34;;;;;;;;;;;-1.50;87.40;;;;;;5033744;28;19924;-76
2022/12/17 17:03:00;;;;;;;;;;;-1.60;87.40;;;;;;5020854;28;20525;-76
2022/12/17 17:05:25;;;;;;;;;;;-1.60;87.50;;;;;;5032369;28;19931;-74
2022/12/17 17:07:51;;;;;;;;;;;-1.70;87.60;;;;;;5032832;28;20076;-75
2022/12/17 17:10:16;;;;;;;;;;;-1.70;87.60;;;;;;5036014;28;19932;-75
2022/12/17 17:12:42;;;;;;;;;;;-1.80;87.50;;;;;;5035754;28;19960;-75
2022/12/17 17:15:07;;;;;;;;;;;-1.90;87.50;;;;;;5034179;28;19928;-75
2022/12/17 17:17:33;;;;;;;;;;;-1.90;87.60;;;;;;5032318;28;19921;-75
2022/12/17 17:19:58;;;;;;;;;;;-2.00;87.60;;;;;;5036611;28;21153;-74
2022/12/17 17:22:24;;;;;;;;;;;-2.10;87.60;;;;;;5035425;28;20027;-74
2022/12/17 17:24:49;;;;;;;;;;;-2.10;87.80;;;;;;5034475;28;19983;-75
2022/12/17 17:27:14;;;;;;;;;;;-2.20;87.80;;;;;;5032720;28;19925;-75
2022/12/17 17:29:40;;;;;;;;;;;-2.20;87.90;;;;;;5035395;28;19921;-74
2022/12/17 17:32:05;;;;;;;;;;;-2.40;88.50;;;;;;5032466;28;19929;-75
2022/12/17 17:34:31;;;;;;;;;;;-2.40;87.70;;;;;;5034197;28;19927;-75
2022/12/17 17:36:56;;;;;;;;;;;-2.50;87.90;;;;;;5015681;28;20415;-75
2022/12/17 17:39:22;;;;;;;;;;;-2.60;88.00;;;;;;5035336;28;19920;-75
2022/12/17 17:41:47;;;;;;;;;;;-2.60;88.10;;;;;;5035965;28;19921;-75
2022/12/17 17:44:13;;;;;;;;;;;-2.70;88.10;;;;;;5032329;28;19932;-75
2022/12/17 17:46:39;;;;;;;;;;;-2.70;88.20;;;;;;5032080;28;20035;-77
2022/12/17 17:49:05;;;;;;;;;;;-2.80;88.30;;;;;;5033658;28;20043;-75
2022/12/17 17:51:34;;;;;;;;;;;-2.80;88.30;;;;;;5032325;28;19921;-75
2022/12/17 17:54:00;;;;;;;;;;;-2.90;88.40;;;;;;5036145;28;20388;-75
2022/12/17 17:56:26;;;;;;;;;;;-2.90;88.20;;;;;;5047278;28;19928;-75
2022/12/17 17:58:52;;;;;;;;;;;-3.00;88.30;;;;;;5033470;28;20626;-74
2022/12/17 18:01:21;;;;;;;;;;;-3.10;88.30;;;;;;5032483;28;20698;-74
2022/12/17 18:03:46;;;;;;;;;;;-3.10;88.40;;;;;;5035695;28;19986;-75
2022/12/17 18:06:12;;;;;;;;;;;-3.20;88.40;;;;;;5019464;28;20379;-73
2022/12/17 18:08:40;;;;;;;;;;;-3.20;88.50;;;;;;5031001;28;21460;-75
2022/12/17 18:11:05;;;;;;;;;;;-3.20;88.60;;;;;;5035911;28;20032;-75
2022/12/17 18:16:15;;;;;;;;;;;-3.30;88.60;;;;;;5035705;28;19974;-75
2022/12/17 18:18:41;;;;;;;;;;;-3.40;88.50;;;;;;5030525;28;20303;-76
2022/12/17 18:21:07;;;;;;;;;;;-3.50;88.50;;;;;;5033508;28;19928;-75
2022/12/17 18:23:32;;;;;;;;;;;-3.50;88.60;;;;;;5031073;28;19921;-75
2022/12/17 18:26:04;;;;;;;;;;;-3.60;88.60;;;;;;5017211;28;20356;-75
2022/12/17 18:28:29;;;;;;;;;;;-3.60;88.70;;;;;;5031884;28;20307;-75
2022/12/17 18:30:55;;;;;;;;;;;-3.60;88.70;;;;;;5031929;28;19921;-75
2022/12/17 18:33:20;;;;;;;;;;;-3.70;88.80;;;;;;5033476;28;19920;-75
2022/12/17 18:35:46;;;;;;;;;;;-3.70;88.80;;;;;;5033786;28;20011;-75
2022/12/17 18:38:11;;;;;;;;;;;-3.80;88.80;;;;;;5018514;28;19927;-75
2022/12/17 18:40:37;;;;;;;;;;;-3.80;88.90;;;;;;5034770;28;19968;-75
2022/12/17 18:45:46;;;;;;;;;;;-3.90;88.90;;;;;;5033248;28;20013;-76
2022/12/17 18:48:12;;;;;;;;;;;-3.90;89.00;;;;;;5016212;28;19998;-75
2022/12/17 18:50:37;;;;;;;;;;;-4.00;88.90;;;;;;5046541;28;19943;-75
2022/12/17 18:53:03;;;;;;;;;;;-4.00;89.10;;;;;;5046175;28;20738;-75
2022/12/17 18:55:28;;;;;;;;;;;-4.00;89.10;;;;;;5031390;28;19931;-75
2022/12/17 18:57:54;;;;;;;;;;;-4.00;89.10;;;;;;5034655;28;19927;-74
2022/12/17 19:00:19;;;;;;;;;;;-4.10;89.10;;;;;;5033971;28;20311;-75
2022/12/17 19:02:45;;;;;;;;;;;-4.10;89.10;;;;;;5035111;28;19944;-75
2022/12/17 19:05:10;;;;;;;;;;;-4.10;89.00;;;;;;5017471;28;19924;-75
2022/12/17 19:07:36;;;;;;;;;;;-4.20;89.10;;;;;;5030592;28;20302;-76
2022/12/17 19:10:01;;;;;;;;;;;-4.20;89.10;;;;;;5030286;28;20027;-75
2022/12/17 19:12:26;;;;;;;;;;;-4.30;89.00;;;;;;5015586;28;19925;-73
2022/12/17 19:14:52;;;;;;;;;;;-4.30;88.90;;;;;;5047030;28;19921;-75
2022/12/17 19:17:17;;;;;;;;;;;-4.40;88.90;;;;;;5018468;28;20566;-74
2022/12/17 19:19:43;;;;;;;;;;;-4.50;88.90;;;;;;5032014;28;19931;-75
2022/12/17 19:22:08;;;;;;;;;;;-4.50;88.90;;;;;;5033606;28;19940;-73
2022/12/17 19:24:35;;;;;;;;;;;-4.50;89.00;;;;;;5032025;28;20751;-75
2022/12/17 19:27:00;;;;;;;;;;;-4.60;89.10;;;;;;5032231;28;19921;-76
2022/12/17 19:29:26;;;;;;;;;;;-4.60;89.20;;;;;;5014242;28;20395;-75
2022/12/17 19:31:51;;;;;;;;;;;-4.60;89.30;;;;;;5032537;28;21311;-74
2022/12/17 19:34:17;;;;;;;;;;;-4.60;89.30;;;;;;5037289;28;19921;-73
2022/12/17 19:36:42;;;;;;;;;;;-4.70;89.30;;;;;;5047418;28;19920;-75
2022/12/17 19:39:10;;;;;;;;;;;-4.70;89.20;;;;;;5036587;28;20496;-75
2022/12/17 19:41:35;;;;;;;;;;;-4.80;89.20;;;;;;5036776;28;19925;-75
2022/12/17 19:44:02;;;;;;;;;;;-4.80;89.20;;;;;;5036195;28;20375;-75
2022/12/17 19:46:28;;;;;;;;;;;-4.80;89.30;;;;;;5037529;28;19925;-74
2022/12/17 19:48:53;;;;;;;;;;;-4.90;89.40;;;;;;5036262;28;19972;-74
2022/12/17 19:51:20;;;;;;;;;;;-4.90;89.30;;;;;;5047987;28;19959;-75
2022/12/17 19:53:46;;;;;;;;;;;-5.00;90.00;;;;;;5036088;28;19940;-75
2022/12/17 19:56:12;;;;;;;;;;;-5.00;89.30;;;;;;5037458;28;19925;-75
2022/12/17 19:58:41;;;;;;;;;;;-5.00;89.40;;;;;;5035336;28;19939;-75
2022/12/17 20:01:07;;;;;;;;;;;-5.10;89.40;;;;;;5036997;28;19921;-75
2022/12/17 20:03:33;;;;;;;;;;;-5.10;89.50;;;;;;5036576;28;20310;-75
2022/12/17 20:05:58;;;;;;;;;;;-5.10;89.60;;;;;;5019641;28;19925;-75
2022/12/17 20:08:24;;;;;;;;;;;-5.10;89.70;;;;;;5034792;28;19955;-73
2022/12/17 20:10:49;;;;;;;;;;;-5.10;89.70;;;;;;5036183;28;19928;-75
2022/12/17 20:13:14;;;;;;;;;;;-5.20;89.60;;;;;;5034457;28;20035;-75
2022/12/17 20:15:40;;;;;;;;;;;-5.20;89.60;;;;;;5033238;28;19921;-73
2022/12/17 20:18:05;;;;;;;;;;;-5.20;89.60;;;;;;5038757;28;19920;-75
2022/12/17 20:20:31;;;;;;;;;;;-5.30;89.60;;;;;;5020679;28;19950;-75
2022/12/17 20:22:56;;;;;;;;;;;-5.30;89.50;;;;;;5048599;28;19925;-75
2022/12/17 20:25:22;;;;;;;;;;;-5.30;89.50;;;;;;5035662;28;20020;-75
2022/12/17 20:27:47;;;;;;;;;;;-5.30;89.60;;;;;;5037155;28;20457;-75
2022/12/17 20:30:13;;;;;;;;;;;-5.40;89.60;;;;;;5037173;28;19931;-75
2022/12/17 20:32:38;;;;;;;;;;;-5.40;89.70;;;;;;5031093;28;19967;-75
2022/12/17 20:35:04;;;;;;;;;;;-5.40;89.70;;;;;;5036661;28;20625;-75
2022/12/17 20:37:29;;;;;;;;;;;-5.50;89.70;;;;;;5047090;28;19924;-75
2022/12/17 20:39:55;;;;;;;;;;;-5.50;89.70;;;;;;5036750;28;20413;-75
2022/12/17 20:42:21;;;;;;;;;;;-5.50;89.60;;;;;;5035338;28;19920;-76
2022/12/17 20:44:46;;;;;;;;;;;-5.60;89.60;;;;;;5039988;28;19952;-75
2022/12/17 20:47:11;;;;;;;;;;;-5.60;89.60;;;;;;5037810;28;20410;-75
2022/12/17 20:49:37;;;;;;;;;;;-5.60;89.70;;;;;;5035673;28;19990;-73
2022/12/17 20:52:02;;;;;;;;;;;-5.60;89.70;;;;;;5036679;28;19928;-75
2022/12/17 20:54:28;;;;;;;;;;;-5.60;89.80;;;;;;5038921;28;19924;-75
2022/12/17 20:56:53;;;;;;;;;;;-5.70;89.80;;;;;;5033957;28;20378;-74
2022/12/17 20:59:19;;;;;;;;;;;-5.70;89.70;;;;;;5032241;28;19917;-75
2022/12/17 21:01:45;;;;;;;;;;;-5.80;89.60;;;;;;5036343;28;20039;-75
2022/12/17 21:04:11;;;;;;;;;;;-5.80;89.70;;;;;;5020219;28;20393;-75
2022/12/17 21:06:37;;;;;;;;;;;-5.80;89.80;;;;;;5050129;28;20409;-75
2022/12/17 21:09:03;;;;;;;;;;;-5.80;89.90;;;;;;5020059;28;20008;-75
2022/12/17 21:11:29;;;;;;;;;;;-5.80;90.00;;;;;;5033056;28;19990;-75
2022/12/17 21:13:54;;;;;;;;;;;-5.80;90.00;;;;;;5034826;28;19920;-76
2022/12/17 21:16:21;;;;;;;;;;;-5.80;90.00;;;;;;5048510;28;20417;-76
2022/12/17 21:18:46;;;;;;;;;;;-5.90;89.90;;;;;;5036315;28;19943;-75
2022/12/17 21:21:13;;;;;;;;;;;-5.90;89.90;;;;;;5017211;28;19924;-74
2022/12/17 21:23:39;;;;;;;;;;;-5.90;89.90;;;;;;5047902;28;20266;-72
2022/12/17 21:26:08;;;;;;;;;;;-5.90;89.90;;;;;;5018679;28;20501;-76
2022/12/17 21:28:34;;;;;;;;;;;-6.00;89.90;;;;;;5049166;28;20074;-75
2022/12/17 21:30:59;;;;;;;;;;;-6.00;89.90;;;;;;5036471;28;20651;-76
2022/12/17 21:33:25;;;;;;;;;;;-6.00;89.90;;;;;;5031328;28;19975;-75
2022/12/17 21:36:00;;;;;;;;;;;-6.00;90.00;;;;;;5019670;28;19928;-75
2022/12/17 21:38:26;;;;;;;;;;;-6.00;90.00;;;;;;5033250;28;20339;-76
2022/12/17 21:40:51;;;;;;;;;;;-6.00;90.00;;;;;;5049493;28;19975;-75
2022/12/17 21:43:17;;;;;;;;;;;-6.00;90.00;;;;;;5033998;28;19920;-74
2022/12/17 21:45:42;;;;;;;;;;;-6.00;90.00;;;;;;5034484;28;19956;-75
2022/12/17 21:48:09;;;;;;;;;;;-6.10;90.00;;;;;;5035855;28;20532;-75
2022/12/17 21:50:44;;;;;;;;;;;-6.10;90.00;;;;;;5035064;28;19970;-76
2022/12/17 21:53:09;;;;;;;;;;;-6.10;89.90;;;;;;5032459;28;19920;-75
2022/12/17 21:55:35;;;;;;;;;;;-6.10;90.00;;;;;;5032979;28;19928;-75
2022/12/17 21:58:00;;;;;;;;;;;-6.20;89.80;;;;;;5032568;28;19925;-75
2022/12/17 22:00:26;;;;;;;;;;;-6.20;89.90;;;;;;5031420;28;19929;-75
2022/12/17 22:02:52;;;;;;;;;;;-6.30;89.90;;;;;;5034060;28;20710;-76
2022/12/17 22:05:17;;;;;;;;;;;-6.20;90.00;;;;;;5031451;28;19931;-73
2022/12/17 22:07:43;;;;;;;;;;;-6.30;89.90;;;;;;5029664;28;19924;-74
2022/12/17 22:10:08;;;;;;;;;;;-6.30;89.90;;;;;;5033632;28;19956;-75
2022/12/17 22:15:18;;;;;;;;;;;-6.40;89.90;;;;;;5030297;28;19960;-75
2022/12/17 22:17:44;;;;;;;;;;;-6.40;90.00;;;;;;5048912;28;20011;-75
2022/12/17 22:20:09;;;;;;;;;;;-6.40;90.00;;;;;;5032742;28;19921;-75
2022/12/17 22:22:35;;;;;;;;;;;-6.40;90.00;;;;;;5036163;28;20482;-75
2022/12/17 22:25:00;;;;;;;;;;;-6.40;90.00;;;;;;5048451;28;19940;-75
2022/12/17 22:27:26;;;;;;;;;;;-6.40;90.00;;;;;;5047274;28;19964;-75
2022/12/17 22:35:19;;;;;;;;;;;-6.50;90.00;;;;;;5042060;28;20050;-75
2022/12/17 22:37:45;;;;;;;;;;;-6.50;90.00;;;;;;5015969;28;20406;-76
2022/12/17 22:40:10;;;;;;;;;;;-6.50;90.00;;;;;;5031847;28;19917;-76
2022/12/17 22:45:20;;;;;;;;;;;-6.60;90.00;;;;;;5031922;28;19923;-76
2022/12/17 22:47:45;;;;;;;;;;;-6.60;89.90;;;;;;5029815;28;19925;-75
2022/12/17 22:50:11;;;;;;;;;;;-6.70;89.80;;;;;;5028268;28;19925;-75
2022/12/17 22:52:36;;;;;;;;;;;-6.80;89.80;;;;;;5033414;28;20486;-75
2022/12/17 22:55:02;;;;;;;;;;;-6.80;89.80;;;;;;5027367;28;19935;-76
2022/12/17 22:57:28;;;;;;;;;;;-6.80;89.90;;;;;;5030957;28;19921;-76
2022/12/17 22:59:53;;;;;;;;;;;-6.90;89.90;;;;;;5031958;28;20461;-75
2022/12/17 23:02:18;;;;;;;;;;;-6.90;90.00;;;;;;5031624;28;20035;-75
2022/12/17 23:04:44;;;;;;;;;;;-6.90;90.00;;;;;;5015080;28;19920;-76
2022/12/17 23:07:09;;;;;;;;;;;-6.90;90.00;;;;;;5033371;28;19928;-77
2022/12/17 23:09:35;;;;;;;;;;;-6.90;90.00;;;;;;5032689;28;20413;-76
2022/12/17 23:12:49;;;;;;;;;;;-6.90;90.00;;;;;;5031988;28;19936;-75
2022/12/17 23:14:46;;;;;;;;;;;-6.90;90.10;;;;;;5031911;28;19921;-74
2022/12/17 23:17:11;;;;;;;;;;;-6.90;90.10;;;;;;5036746;28;20375;-75
2022/12/17 23:19:36;;;;;;;;;;;-6.90;90.10;;;;;;5036677;28;19967;-75
2022/12/17 23:22:02;;;;;;;;;;;-7.00;90.10;;;;;;5037983;28;19921;-75
2022/12/17 23:24:27;;;;;;;;;;;-7.00;90.10;;;;;;5033328;28;20451;-76
2022/12/17 23:26:53;;;;;;;;;;;-7.00;90.10;;;;;;5037358;28;19971;-75
2022/12/17 23:29:18;;;;;;;;;;;-7.00;90.10;;;;;;5036971;28;19924;-75
2022/12/17 23:31:44;;;;;;;;;;;-7.00;90.10;;;;;;5036071;28;20417;-75
2022/12/17 23:34:09;;;;;;;;;;;-7.00;90.10;;;;;;5034582;28;19927;-75
2022/12/17 23:36:35;;;;;;;;;;;-7.00;90.10;;;;;;5032776;28;20425;-75
2022/12/17 23:39:00;;;;;;;;;;;-7.10;90.10;;;;;;5036766;28;20452;-75
2022/12/17 23:41:26;;;;;;;;;;;-7.10;90.10;;;;;;5036926;28;19924;-76
2022/12/17 23:43:52;;;;;;;;;;;-7.10;90.10;;;;;;5035420;28;19925;-76
2022/12/17 23:46:18;;;;;;;;;;;-7.10;90.10;;;;;;5035820;28;19973;-75
2022/12/17 23:48:43;;;;;;;;;;;-7.10;90.10;;;;;;5035371;28;19925;-76
2022/12/17 23:51:09;;;;;;;;;;;-7.10;90.10;;;;;;5035242;28;19921;-74
2022/12/17 23:53:35;;;;;;;;;;;-7.10;90.10;;;;;;5036304;28;20601;-76
2022/12/17 23:56:04;;;;;;;;;;;-7.20;90.10;;;;;;5034613;28;19928;-75
2022/12/17 23:58:30;;;;;;;;;;;-7.20;90.10;;;;;;5034981;28;19924;-75
